Terminal Aerodrome Forecast
Issued by NWS Portland, ME

Home | Current Version | Previous Version | Text Only | Print | Product List | Glossary On
Versions: 1 2 3 4 5 6 7 8 9 10 11 12 13 14 15 16 17 18 19
751
FTUS41 KGYX 260527
TAFPWM
TAF
KPWM 260527Z 2606/2706 12007KT 4SM -RA BR OVC002
     FM260700 12007KT 3SM BR OVC002
     FM261300 25007KT P6SM BKN007
     FM261800 26010G17KT P6SM FEW025 BKN100
     FM270000 27008KT P6SM FEW250=

USA.gov is the U.S. government's official web portal to all federal, state and local government web resources and services.